• Join FlightAware (Why Join?)
  • Login
  • US Flag 
12:34AM EDT


 

Airport Tracker/Info


-or-


 

Live Flight TrackerFlight Track Log ✈ UAL765 ✈ 05-May-2013 ✈ KBOS - KEWR

Flight Track Log - Related Links

Times and Time Zones

All times are in EDT time to prevent confusion due to time zone crossing. See the UAL765 flight status page for this flight to view local times or setup timezone preferences in your user account.

Time Position Orientation Groundspeed Altitude Reporting Facility
EDT Latitude Longitude Course Direction KTS MPH feet Rate Location/Type
10:03AM 42.3667 -71.0000 240° Southwest 162 186 600  Level KA90
10:04AM 42.4333 -70.9667 20° North 215 247 3,700 2,160 Climbing KA90
10:05AM 42.4500 -70.8833 75° East 254 292 5,200 2,640 Climbing KA90
10:07AM 42.2956 -70.7233 228° Southwest  Level FlightAware Approximate
10:07AM 42.4319 -70.7747 103° East 267 307 9,700  Level Boston Center
10:08AM 42.2321 -70.8197 240° Southwest  Level FlightAware Approximate
10:08AM 42.3711 -70.7428 159° South 239 275 11,500  Level Boston Center
10:09AM 42.1842 -70.9313 240° Southwest  Level FlightAware Approximate
10:09AM 42.2633 -70.7822 195° South 268 308 14,800  Level Boston Center
10:10AM 42.2339 -70.9175 254° West 268 308 16,000 600 Climbing Boston Center
10:11AM 42.2147 -71.0469 259° West 312 359 16,000  Level Boston Center
10:12AM 42.1894 -71.1989 257° West 364 419 16,000  Level Boston Center
10:13AM 42.1719 -71.3225 259° West 386 444 16,000  Level Boston Center
10:14AM 42.1461 -71.4769 257° West 386 444 16,000  Level Boston Center
10:15AM 42.1222 -71.6172 257° West 386 444 16,000  Level Boston Center
10:16AM 42.1003 -71.7575 258° West 386 444 16,000  Level Boston Center
10:17AM 42.0781 -71.8975 258° West 391 450 16,000  Level Boston Center
10:18AM 42.0558 -72.0236 257° West 391 450 16,000  Level Boston Center
10:19AM 42.0292 -72.1775 257° West 391 450 16,000  Level Boston Center
10:20AM 42.0086 -72.3031 258° West 391 450 16,000  Level Boston Center
10:21AM 41.9836 -72.4597 258° West 391 450 16,000  Level Boston Center
10:22AM 41.9606 -72.5853 256° West 391 450 16,000  Level Boston Center
10:23AM 41.9289 -72.7386 255° West 391 450 16,000  Level Boston Center
10:24AM 41.8972 -72.8781 253° West 391 450 16,100  Climbing Boston Center
10:25AM 41.8697 -73.0006 253° West 391 450 16,100  Level Boston Center
10:26AM 41.8333 -73.1506 252° West 391 450 16,100  Level Boston Center
10:27AM 41.8033 -73.2728 252° West 391 450 16,100 -120 Level Boston Center
10:28AM 41.7647 -73.4253 251° West 391 450 15,900 -120 Descending Boston Center
10:29AM 41.7342 -73.5500 252° West 386 444 15,900 -180 Level Boston Center
10:30AM 41.6994 -73.6969 252° West 386 444 15,600 -600 Descending Boston Center
10:31AM 41.6667 -73.8183 250° West 386 444 14,800 -1,020 Descending Boston Center
10:32AM 41.6336 -73.9622 253° West 379 436 13,600 -1,620 Descending Boston Center
10:33AM 41.6050 -74.0781 252° West 374 430 11,600 -1,320 Descending Boston Center
10:34AM 41.5431 -74.1764 230° Southwest 345 397 11,000 -600 Descending Boston Center
10:35AM 41.4625 -74.2628 219° Southwest 350 403 10,500 -1,260 Descending Boston Center
10:37AM 41.3167 -74.4167 218° Southwest 289 333 7,000 -1,140 Descending New York TRACON
10:38AM 41.2667 -74.4500 207° Southwest 286 329 7,000 -360 Level New York TRACON
10:39AM 41.1833 -74.4833 197° South 279 321 6,300 -540 Descending New York TRACON
10:40AM 41.1167 -74.5167 201° Southwest 281 323 6,000 -240 Descending New York TRACON
10:41AM 41.0333 -74.5500 197° South 281 323 5,900 -540 Descending New York TRACON
10:42AM 40.9667 -74.5667 191° South 272 313 5,000 -480 Descending New York TRACON
10:43AM 40.9000 -74.5667 180° South 266 306 5,000  Level New York TRACON
10:44AM 40.8167 -74.5667 180° South 264 304 5,000  Level New York TRACON
10:45AM 40.7333 -74.5500 171° South 266 306 5,000  Level New York TRACON
10:46AM 40.6667 -74.5333 169° South 261 300 5,000 -120 Level New York TRACON
10:47AM 40.6000 -74.5000 159° South 262 302 4,800 -660 Descending New York TRACON
10:48AM 40.5667 -74.4167 118° Southeast 241 277 3,800 -780 Descending New York TRACON
10:49AM 40.5500 -74.3500 108° East 212 244 3,300 -420 Descending New York TRACON
10:50AM 40.5167 -74.2833 123° Southeast 181 208 3,000 -240 Descending New York TRACON
10:51AM 40.5500 -74.2500 37° Northeast 177 204 2,900 -540 Descending New York TRACON
10:52AM 40.6000 -74.2333 14° North 173 199 2,000 -960 Descending New York TRACON
10:53AM 40.6333 -74.2000 37° Northeast 145 167 1,000 -900 Descending New York TRACON
10:54AM 40.6667 -74.1833 21° North 127 146 300 -780 Descending New York TRACON